Time;durP1;ratioP1;P1;durP2;ratioP2;P2;SDS_P1;SDS_P2;PMS_P1;PMS_P2;Temp;Humidity;BMP_temperature;BMP_pressure;BME280_temperature;BME280_humidity;BME280_pressure;Samples;Min_cycle;Max_cycle;Signal;HPM_P1;HPM_P2
2023/10/14 00:00:47;;;;;;;3.80;0.30;;;;;;;-146.25;100.00;52388.47;2069399;28;32022;-67
2023/10/14 00:01:54;;;;;;;2.85;0.20;;;;;;;-146.25;100.00;52390.50;2070040;28;35252;-67
2023/10/14 00:03:18;;;;;;;3.90;0.20;;;;;;;-146.25;100.00;52416.84;2063709;28;20043;-67
2023/10/14 00:04:26;;;;;;;2.38;0.15;;;;;;;-146.25;100.00;52433.06;2063520;28;20837;-67
2023/10/14 00:05:28;;;;;;;7.00;0.30;;;;;;;-146.25;100.00;52396.59;2058744;28;37178;-67
2023/10/14 00:06:34;;;;;;;5.00;0.40;;;;;;;-146.25;100.00;52412.81;2062289;28;35158;-67
2023/10/14 00:07:36;;;;;;;5.88;0.50;;;;;;;-146.25;100.00;52433.06;2063143;28;34565;-68
2023/10/14 00:08:55;;;;;;;3.10;0.20;;;;;;;-146.25;100.00;52427.00;2062747;28;32169;-67
2023/10/14 00:10:03;;;;;;;4.47;0.30;;;;;;;-146.25;100.00;52410.78;2062079;28;34512;-67
2023/10/14 00:11:07;;;;;;;;;;;;;;;-146.25;100.00;52429.03;2071200;28;20046;-67
2023/10/14 00:12:14;;;;;;;5.68;0.35;;;;;;;-146.25;100.00;52429.03;2070016;28;19929;-67
2023/10/14 00:13:18;;;;;;;1.90;0.10;;;;;;;-146.25;100.00;52420.91;2063042;28;36589;-67
2023/10/14 00:14:22;;;;;;;4.05;0.20;;;;;;;-146.25;100.00;52443.22;2063799;28;20058;-67
2023/10/14 00:15:30;;;;;;;3.97;0.20;;;;;;;-146.25;100.00;52400.63;2062996;28;21048;-68
2023/10/14 00:16:35;;;;;;;5.15;0.30;;;;;;;-146.25;100.00;52384.41;2062371;28;37300;-69
2023/10/14 00:17:41;;;;;;;2.85;0.30;;;;;;;-146.25;100.00;52424.97;2062466;28;36551;-67
2023/10/14 00:18:47;;;;;;;3.17;0.30;;;;;;;-146.25;100.00;52394.56;2063012;28;20074;-67
2023/10/14 00:19:50;;;;;;;2.45;0.15;;;;;;;-146.25;100.00;52396.59;2062268;28;36836;-67
2023/10/14 00:20:53;;;;;;;5.72;0.20;;;;;;;-146.25;100.00;52414.84;2062712;28;20165;-67
2023/10/14 00:21:55;;;;;;;5.10;0.20;;;;;;;-146.25;100.00;52465.53;2062623;28;30573;-67
2023/10/14 00:22:57;;;;;;;2.95;0.20;;;;;;;-146.25;100.00;52427.00;2062086;28;35498;-68
2023/10/14 00:24:02;;;;;;;4.10;0.20;;;;;;;-146.25;100.00;52410.78;2062703;28;33502;-69
2023/10/14 00:25:19;;;;;;;2.85;0.20;;;;;;;-146.25;100.00;52431.06;2061727;28;38878;-69
2023/10/14 00:26:26;;;;;;;2.97;0.22;;;;;;;-146.25;100.00;52441.19;2062884;28;30709;-68
2023/10/14 00:27:30;;;;;;;2.20;0.20;;;;;;;-146.25;100.00;52424.97;2062143;28;20054;-67
2023/10/14 00:28:32;;;;;;;3.10;0.20;;;;;;;-146.25;100.00;52412.81;2062278;28;32491;-67
2023/10/14 00:29:35;;;;;;;1.00;0.10;;;;;;;-146.25;100.00;52400.63;2063093;28;20089;-67
2023/10/14 00:30:38;;;;;;;1.67;0.20;;;;;;;-146.25;100.00;52414.84;2062537;28;29438;-67
2023/10/14 00:31:40;;;;;;;1.05;0.10;;;;;;;-146.25;100.00;52414.84;2063053;28;22788;-67
2023/10/14 00:32:43;;;;;;;2.08;0.20;;;;;;;-146.25;100.00;52431.06;2062781;28;20038;-67
2023/10/14 00:33:45;;;;;;;2.72;0.20;;;;;;;-146.25;100.00;52422.94;2061848;28;31050;-68
2023/10/14 00:34:48;;;;;;;1.75;0.20;;;;;;;-146.25;100.00;52402.66;2062694;28;20995;-67
2023/10/14 00:35:54;;;;;;;0.80;0.20;;;;;;;-146.25;100.00;52414.84;2062755;28;28888;-67
2023/10/14 00:36:56;;;;;;;1.10;0.10;;;;;;;-146.25;100.00;52394.56;2063786;28;20208;-67
2023/10/14 00:38:08;;;;;;;1.63;0.10;;;;;;;-146.25;100.00;52370.22;2063002;28;20042;-67
2023/10/14 00:39:14;;;;;;;2.72;0.10;;;;;;;-146.25;100.00;52424.97;2062417;28;20905;-67
2023/10/14 00:40:24;;;;;;;1.05;0.10;;;;;;;-146.25;100.00;52439.16;2055450;28;30815;-67
2023/10/14 00:41:26;;;;;;;1.77;0.20;;;;;;;-146.25;100.00;52402.66;2055820;28;33808;-66
2023/10/14 00:42:28;;;;;;;2.63;0.17;;;;;;;-146.25;100.00;52394.56;2054462;28;21887;-67
2023/10/14 00:43:30;;;;;;;1.58;0.10;;;;;;;-146.25;100.00;52453.34;2062501;28;20043;-67
2023/10/14 00:44:35;;;;;;;5.95;0.15;;;;;;;-146.25;100.00;52398.59;2070371;28;20035;-67
2023/10/14 00:45:43;;;;;;;1.80;0.20;;;;;;;-146.25;100.00;52437.13;2069838;28;24036;-67
2023/10/14 00:46:49;;;;;;;1.50;0.17;;;;;;;-146.25;100.00;52429.03;2070633;28;20050;-66
2023/10/14 00:47:52;;;;;;;2.40;0.10;;;;;;;-146.25;100.00;52445.25;2062275;28;20101;-64
2023/10/14 00:48:59;;;;;;;4.32;0.20;;;;;;;-146.25;100.00;52453.34;2054723;28;23059;-68
2023/10/14 00:50:20;;;;;;;5.45;0.20;;;;;;;-146.25;100.00;52429.03;2064141;28;26593;-68
2023/10/14 00:51:23;;;;;;;2.22;0.20;;;;;;;-146.25;100.00;52433.06;2063720;28;32026;-67
2023/10/14 00:52:29;;;;;;;4.15;0.10;;;;;;;-146.25;100.00;52400.63;2061040;28;20054;-67
2023/10/14 00:53:34;;;;;;;4.05;0.30;;;;;;;-146.25;100.00;52410.78;2071588;28;20043;-68
2023/10/14 00:55:54;;;;;;;2.97;0.25;;;;;;;-146.25;100.00;52431.06;2063849;28;28795;-67
2023/10/14 00:57:09;;;;;;;1.92;0.20;;;;;;;-146.25;100.00;52416.84;2063781;28;30521;-67
2023/10/14 00:58:14;;;;;;;0.95;0.10;;;;;;;-146.25;100.00;52420.91;2064230;28;20145;-67
2023/10/14 00:59:18;;;;;;;3.85;0.20;;;;;;;-146.25;100.00;52402.66;2063600;28;29175;-67
2023/10/14 01:00:34;;;;;;;3.08;0.20;;;;;;;-146.25;100.00;52424.97;2071706;28;24884;-67
2023/10/14 01:02:56;;;;;;;2.00;0.17;;;;;;;-146.25;100.00;52455.38;2071646;28;35531;-66
2023/10/14 01:05:20;;;;;;;2.60;0.20;;;;;;;-146.25;100.00;52441.19;2063798;28;25635;-67
2023/10/14 01:06:34;;;;;;;3.13;0.30;;;;;;;-146.25;100.00;52414.84;2072353;28;20026;-66
2023/10/14 01:07:38;;;;;;;1.58;0.17;;;;;;;-146.25;100.00;52422.94;2063084;28;20924;-67
2023/10/14 01:08:43;;;;;;;2.42;0.20;;;;;;;-146.25;100.00;52394.56;2055573;28;26567;-69
2023/10/14 01:10:46;;;;;;;2.17;0.20;;;;;;;-146.25;100.00;52429.03;2063949;28;26786;-69
2023/10/14 01:11:48;;;;;;;2.60;0.20;;;;;;;-146.25;100.00;52437.13;2071393;28;24561;-67
2023/10/14 01:12:56;;;;;;;2.55;0.20;;;;;;;-146.25;100.00;52435.09;2071618;28;24120;-67
2023/10/14 01:14:05;;;;;;;2.45;0.25;;;;;;;-146.25;100.00;52416.84;2063569;28;20054;-69
2023/10/14 01:15:18;;;;;;;2.15;0.30;;;;;;;-146.25;100.00;52429.03;2063538;28;27901;-69
2023/10/14 01:16:24;;;;;;;3.67;0.22;;;;;;;-146.25;100.00;52408.75;2071763;28;20098;-67
2023/10/14 01:17:29;;;;;;;4.22;0.10;;;;;;;-146.25;100.00;52453.34;2071058;28;27121;-66
2023/10/14 01:18:38;;;;;;;2.67;0.20;;;;;;;-146.25;100.00;52416.84;2063889;28;23550;-67
2023/10/14 01:19:40;;;;;;;1.83;0.20;;;;;;;-146.25;100.00;52420.91;2064020;28;20089;-67
2023/10/14 01:20:42;;;;;;;2.00;0.20;;;;;;;-146.25;100.00;52406.72;2064122;28;31852;-65
2023/10/14 01:21:46;;;;;;;2.92;0.30;;;;;;;-146.25;100.00;52414.84;2063989;28;24507;-66
2023/10/14 01:22:57;;;;;;;3.53;0.32;;;;;;;-146.25;100.00;52433.06;2064018;28;27935;-66
2023/10/14 01:23:58;;;;;;;4.57;0.20;;;;;;;-146.25;100.00;52418.88;2063285;28;30685;-66
2023/10/14 01:25:05;;;;;;;2.33;0.30;;;;;;;-146.25;100.00;52390.50;2071808;28;20212;-67
2023/10/14 01:26:10;;;;;;;3.90;0.30;;;;;;;-146.25;100.00;52439.16;2071312;28;20065;-66
2023/10/14 01:27:13;;;;;;;4.15;0.43;;;;;;;-146.25;100.00;52427.00;2064763;28;20055;-67
2023/10/14 01:28:21;;;;;;;2.40;0.30;;;;;;;-146.25;100.00;52459.44;2063874;28;31875;-67
2023/10/14 01:29:31;;;;;;;2.65;0.30;;;;;;;-146.25;100.00;52429.03;2064629;28;20034;-66
2023/10/14 01:30:37;;;;;;;3.53;0.50;;;;;;;-146.25;100.00;52396.59;2063183;28;32291;-66
2023/10/14 01:32:26;;;;;;;3.28;0.17;;;;;;;-146.25;100.00;52445.25;2064552;28;20162;-66
2023/10/14 01:33:35;;;;;;;3.10;0.30;;;;;;;-146.25;100.00;52433.06;2063260;28;34444;-66
2023/10/14 01:34:42;;;;;;;4.20;0.30;;;;;;;-146.25;100.00;52420.91;2056318;28;32709;-66
2023/10/14 01:35:45;;;;;;;1.67;0.30;;;;;;;-146.25;100.00;52437.13;2063341;28;33890;-66
2023/10/14 01:36:50;;;;;;;6.68;0.55;;;;;;;-146.25;100.00;52433.06;2063163;28;20054;-66
2023/10/14 01:37:57;;;;;;;2.92;0.30;;;;;;;-146.25;100.00;52439.16;2055626;28;31536;-66
2023/10/14 01:39:14;;;;;;;4.55;0.40;;;;;;;-146.25;100.00;52372.25;2063731;28;28789;-66
2023/10/14 01:40:29;;;;;;;3.85;0.30;;;;;;;-146.25;100.00;52420.91;2063970;28;27798;-67
2023/10/14 01:41:34;;;;;;;3.30;0.20;;;;;;;-146.25;100.00;52445.25;2063877;28;20101;-67
2023/10/14 01:42:36;;;;;;;2.97;0.25;;;;;;;-146.25;100.00;52396.59;2063461;28;31255;-67
2023/10/14 01:43:38;;;;;;;2.15;0.20;;;;;;;-146.25;100.00;52461.47;2064158;28;25080;-67
2023/10/14 01:44:41;;;;;;;4.53;0.30;;;;;;;-146.25;100.00;52402.66;2063746;28;27081;-67
2023/10/14 01:45:50;;;;;;;3.72;0.20;;;;;;;-146.25;100.00;52404.69;2062872;28;31325;-66
2023/10/14 01:46:55;;;;;;;3.75;0.22;;;;;;;-146.25;100.00;52427.00;2064220;28;20031;-67
2023/10/14 01:48:12;;;;;;;6.35;0.20;;;;;;;-146.25;100.00;52449.31;2062611;28;26896;-67
2023/10/14 01:49:19;;;;;;;3.40;0.20;;;;;;;-146.25;100.00;52441.19;2065326;28;20929;-67
2023/10/14 01:50:24;;;;;;;3.85;0.65;;;;;;;-146.25;100.00;52410.78;2063839;28;20101;-65
2023/10/14 01:51:27;;;;;;;4.38;0.30;;;;;;;-146.25;100.00;52416.84;2064485;28;20117;-66
2023/10/14 01:52:31;;;;;;;4.97;0.43;;;;;;;-146.25;100.00;52420.91;2063895;28;20042;-66
2023/10/14 01:53:36;;;;;;;3.85;0.30;;;;;;;-146.25;100.00;52424.97;2063055;28;37351;-68
2023/10/14 01:54:39;;;;;;;5.28;0.30;;;;;;;-146.25;100.00;52414.84;2070891;28;28438;-67
2023/10/14 01:55:41;;;;;;;4.03;0.35;;;;;;;-146.25;100.00;52445.25;2064117;28;20043;-69
2023/10/14 01:56:46;;;;;;;7.38;0.40;;;;;;;-146.25;100.00;52412.81;2071706;28;20089;-68
2023/10/14 01:57:47;;;;;;;3.80;0.47;;;;;;;-146.25;100.00;52447.28;2071573;28;20073;-68
2023/10/14 01:58:57;;;;;;;5.72;0.55;;;;;;;-146.25;100.00;52424.97;2063225;28;23759;-68
2023/10/14 01:59:59;;;;;;;6.35;0.30;;;;;;;-146.25;100.00;52437.13;2063130;28;24031;-68
2023/10/14 02:02:20;;;;;;;5.65;0.30;;;;;;;-146.25;100.00;52398.59;2054993;28;20043;-68
2023/10/14 02:03:24;;;;;;;7.43;0.50;;;;;;;-146.25;100.00;52380.38;2056988;28;20023;-66
2023/10/14 02:04:27;;;;;;;3.97;0.40;;;;;;;-146.25;100.00;52439.16;2046150;28;34201;-67
2023/10/14 02:05:29;;;;;;;4.97;0.40;;;;;;;-146.25;100.00;52435.09;2039502;28;27809;-67
2023/10/14 02:06:31;;;;;;;8.18;0.35;;;;;;;-146.25;100.00;52445.25;2046650;28;20087;-66
2023/10/14 02:07:35;;;;;;;6.30;0.35;;;;;;;-146.25;100.00;52418.88;2047477;28;20957;-68
2023/10/14 02:08:40;;;;;;;5.22;0.40;;;;;;;-146.25;100.00;52461.47;2055285;28;26359;-66
2023/10/14 02:09:42;;;;;;;8.32;0.60;;;;;;;-146.25;100.00;52451.31;2055683;28;20039;-67
2023/10/14 02:10:47;;;;;;;10.43;0.60;;;;;;;-146.25;100.00;52443.22;2039813;28;20043;-66
2023/10/14 02:11:48;;;;;;;6.35;0.60;;;;;;;-146.25;100.00;52416.84;2055974;28;20158;-66
2023/10/14 02:12:50;;;;;;;4.57;0.40;;;;;;;-146.25;100.00;52420.91;2062481;28;24200;-67
2023/10/14 02:13:52;;;;;;;5.18;0.35;;;;;;;-146.25;100.00;52412.81;2056278;28;20072;-68
2023/10/14 02:14:57;;;;;;;3.53;0.50;;;;;;;-146.25;100.00;52420.91;2062675;28;20896;-66
2023/10/14 02:16:09;;;;;;;8.68;0.60;;;;;;;-146.25;100.00;52429.03;2055425;28;30964;-67
2023/10/14 02:17:12;;;;;;;5.22;0.40;;;;;;;-146.25;100.00;52420.91;2056630;28;24121;-66
2023/10/14 02:18:21;;;;;;;6.82;0.47;;;;;;;-146.25;100.00;52447.28;2067654;28;21172;-66
2023/10/14 02:20:38;;;;;;;7.70;0.57;;;;;;;-146.25;100.00;52479.72;2056832;28;20051;-66
2023/10/14 02:21:43;;;;;;;12.93;1.05;;;;;;;-146.25;100.00;52429.03;2063973;28;21751;-67
2023/10/14 02:22:49;;;;;;;7.95;0.63;;;;;;;-146.25;100.00;52424.97;2062731;28;30990;-66
2023/10/14 02:23:53;;;;;;;5.13;0.65;;;;;;;-146.25;100.00;52412.81;2063695;28;27454;-66
2023/10/14 02:24:57;;;;;;;10.00;0.40;;;;;;;-146.25;100.00;52457.41;2062990;28;29966;-66
2023/10/14 02:26:00;;;;;;;5.32;0.40;;;;;;;-146.25;100.00;52422.94;2063296;28;25981;-66
2023/10/14 02:27:21;;;;;;;11.18;0.68;;;;;;;-146.25;100.00;52429.03;2062859;28;34985;-66
2023/10/14 02:28:29;;;;;;;15.48;0.70;;;;;;;-146.25;100.00;52400.63;2058162;28;27707;-66
2023/10/14 02:29:32;;;;;;;10.02;0.65;;;;;;;-146.25;100.00;52443.22;2058278;28;26511;-68
2023/10/14 02:30:34;;;;;;;9.25;0.73;;;;;;;-146.25;100.00;52416.84;2062305;28;25808;-68
2023/10/14 02:31:36;;;;;;;8.38;0.70;;;;;;;-146.25;100.00;52402.66;2070470;28;20117;-67
2023/10/14 02:32:38;;;;;;;10.02;0.70;;;;;;;-146.25;100.00;52427.00;2063349;28;33210;-66
2023/10/14 02:33:40;;;;;;;5.68;0.60;;;;;;;-146.25;100.00;52441.19;2062644;28;26386;-65
2023/10/14 02:34:45;;;;;;;9.70;0.65;;;;;;;-146.25;100.00;52447.28;2063638;28;20125;-65
2023/10/14 02:35:47;;;;;;;8.77;1.05;;;;;;;-146.25;100.00;52453.34;2055996;28;20134;-66
2023/10/14 02:36:50;;;;;;;10.32;0.63;;;;;;;-146.25;100.00;52437.13;2063036;28;21036;-66
2023/10/14 02:37:53;;;;;;;10.82;0.77;;;;;;;-146.25;100.00;52420.91;2054539;28;24171;-64
2023/10/14 02:38:56;;;;;;;6.32;0.63;;;;;;;-146.25;100.00;52439.16;2055613;28;27446;-68
2023/10/14 02:39:58;;;;;;;8.65;0.60;;;;;;;-146.25;100.00;52439.16;2062871;28;28962;-65
2023/10/14 02:41:04;;;;;;;7.63;0.90;;;;;;;-146.25;100.00;52461.47;2056039;28;20052;-66
2023/10/14 02:43:07;;;;;;;8.02;0.98;;;;;;;-146.25;100.00;52441.19;2063020;28;24422;-66
2023/10/14 02:45:14;;;;;;;8.98;0.93;;;;;;;-146.25;100.00;52449.31;2064038;28;24805;-66
2023/10/14 02:46:20;;;;;;;10.65;0.45;;;;;;;-146.25;100.00;52433.06;2063210;28;26181;-65
2023/10/14 02:47:26;;;;;;;5.85;0.82;;;;;;;-146.25;100.00;52469.56;2063440;28;26923;-66
2023/10/14 02:48:49;;;;;;;9.27;0.73;;;;;;;-146.25;100.00;52420.91;2062209;28;29743;-66
2023/10/14 02:49:55;;;;;;;7.60;0.55;;;;;;;-146.25;100.00;52457.41;2063251;28;27582;-66
2023/10/14 02:50:56;;;;;;;11.60;0.68;;;;;;;-146.25;100.00;52412.81;2063419;28;29444;-66
2023/10/14 02:52:01;;;;;;;11.50;0.90;;;;;;;-146.25;100.00;52443.22;2063247;28;33602;-66
2023/10/14 02:53:07;;;;;;;5.95;0.57;;;;;;;-146.25;100.00;52412.81;2063774;28;22773;-66
2023/10/14 02:54:26;;;;;;;9.88;0.88;;;;;;;-146.25;100.00;52431.06;2063342;28;35609;-68
2023/10/14 02:55:50;;;;;;;12.87;0.80;;;;;;;-146.25;100.00;52429.03;2063367;28;24639;-67
2023/10/14 02:57:55;;;;;;;10.52;0.73;;;;;;;-146.25;100.00;52437.13;2071052;28;26832;-68
2023/10/14 02:58:57;;;;;;;14.05;1.38;;;;;;;-146.25;100.00;52427.00;2062775;28;31858;-66
2023/10/14 02:59:59;;;;;;;12.38;0.85;;;;;;;-146.25;100.00;52461.47;2062884;28;27923;-66
2023/10/14 03:01:05;;;;;;;6.35;0.50;;;;;;;-146.25;100.00;52429.03;2071087;28;25653;-65
2023/10/14 03:02:11;;;;;;;10.35;0.60;;;;;;;-146.25;100.00;52439.16;2071206;28;26343;-66
2023/10/14 03:03:15;;;;;;;9.95;0.85;;;;;;;-146.25;100.00;52441.19;2063643;28;20058;-66
2023/10/14 03:04:23;;;;;;;9.05;0.90;;;;;;;-146.25;100.00;52427.00;2064079;28;20033;-66
2023/10/14 03:06:53;;;;;;;8.07;0.80;;;;;;;-146.25;100.00;52457.41;2063823;28;21001;-66
2023/10/14 03:07:55;;;;;;;12.23;1.00;;;;;;;-146.25;100.00;52439.16;2062823;28;26645;-66
2023/10/14 03:08:58;;;;;;;10.95;0.98;;;;;;;-146.25;100.00;52400.63;2063234;28;20039;-66
2023/10/14 03:11:26;;;;;;;11.90;0.75;;;;;;;-146.25;100.00;52424.97;2064012;28;20968;-66
2023/10/14 03:12:27;;;;;;;12.13;0.90;;;;;;;-146.25;100.00;52408.75;2062650;28;25709;-65
2023/10/14 03:13:33;;;;;;;10.63;0.73;;;;;;;-146.25;100.00;52441.19;2054017;28;29575;-65
2023/10/14 03:14:40;;;;;;;13.77;1.52;;;;;;;-146.25;100.00;52402.66;2062587;28;31869;-66
2023/10/14 03:15:47;;;;;;;17.85;1.27;;;;;;;-146.25;100.00;52445.25;2070588;28;31080;-66
2023/10/14 03:16:51;;;;;;;14.13;1.40;;;;;;;-146.25;100.00;52477.69;2070374;28;30015;-66
2023/10/14 03:17:58;;;;;;;8.98;0.85;;;;;;;-146.25;100.00;52461.47;2063571;28;23345;-66
2023/10/14 03:19:00;;;;;;;10.63;0.90;;;;;;;-146.25;100.00;52461.47;2062917;28;20158;-66
2023/10/14 03:20:58;;;;;;;8.90;1.27;;;;;;;-146.25;100.00;52445.25;2062917;28;20953;-66
2023/10/14 03:21:30;;;;;;;8.50;0.90;;;;;;;-146.25;100.00;52422.94;2062129;28;33090;-65
2023/10/14 03:22:34;;;;;;;10.88;1.35;;;;;;;-146.25;100.00;52431.06;2071064;28;33766;-66
2023/10/14 03:23:36;;;;;;;8.98;0.70;;;;;;;-146.25;100.00;52445.25;2070386;28;26301;-65
2023/10/14 03:24:43;;;;;;;14.73;0.95;;;;;;;-146.25;100.00;52433.06;2063800;28;20035;-66
2023/10/14 03:25:50;;;;;;;11.98;1.02;;;;;;;-146.25;100.00;52437.13;2062900;28;26480;-66
2023/10/14 03:27:02;;;;;;;9.48;1.02;;;;;;;-146.25;100.00;52408.75;2063403;28;35493;-66
2023/10/14 03:29:16;;;;;;;13.02;1.02;;;;;;;-146.25;100.00;52416.84;2064046;28;20050;-66
2023/10/14 03:30:18;;;;;;;10.57;0.90;;;;;;;-146.25;100.00;52427.00;2063428;28;31659;-66
2023/10/14 03:31:23;;;;;;;13.13;1.00;;;;;;;-146.25;100.00;52493.91;2063247;28;27987;-66
2023/10/14 03:32:32;;;;;;;7.55;0.73;;;;;;;-146.25;100.00;52457.41;2063126;28;34963;-66
2023/10/14 03:33:45;;;;;;;11.75;0.80;;;;;;;-146.25;100.00;52443.22;2062343;28;37341;-66
2023/10/14 03:34:47;;;;;;;10.95;0.93;;;;;;;-146.25;100.00;52416.84;2063666;28;20038;-65
2023/10/14 03:36:05;;;;;;;15.32;0.93;;;;;;;-146.25;100.00;52441.19;2062020;28;33107;-65
2023/10/14 03:37:21;;;;;;;11.48;1.17;;;;;;;-146.25;100.00;52433.06;2063027;28;34813;-66
2023/10/14 03:39:45;;;;;;;13.90;1.13;;;;;;;-146.25;100.00;52451.31;2062847;28;36357;-66
2023/10/14 03:41:54;;;;;;;9.52;0.90;;;;;;;-146.25;100.00;52408.75;2062160;28;33908;-65
2023/10/14 03:43:07;;;;;;;11.88;0.98;;;;;;;-146.25;100.00;52437.13;2063254;28;20078;-66
2023/10/14 03:44:09;;;;;;;15.65;0.88;;;;;;;-146.25;100.00;52424.97;2063042;28;36648;-66
2023/10/14 03:45:20;;;;;;;10.32;1.02;;;;;;;-146.25;100.00;52455.38;2063120;28;35432;-66
2023/10/14 03:46:32;;;;;;;7.93;0.98;;;;;;;-146.25;100.00;52457.41;2062833;28;37189;-66
2023/10/14 03:47:34;;;;;;;11.80;1.17;;;;;;;-146.25;100.00;52443.22;2062612;28;36124;-66
2023/10/14 03:48:45;;;;;;;12.93;1.00;;;;;;;-146.25;100.00;52445.25;2070329;28;20916;-65
2023/10/14 03:49:56;;;;;;;8.63;1.02;;;;;;;-146.25;100.00;52459.44;2069508;28;20035;-66
2023/10/14 03:51:03;;;;;;;18.02;1.35;;;;;;;-146.25;100.00;52435.09;2057440;28;31076;-66
2023/10/14 03:52:10;;;;;;;15.55;1.23;;;;;;;-146.25;100.00;52433.06;2062535;28;34795;-66
2023/10/14 03:53:12;;;;;;;9.88;0.90;;;;;;;-146.25;100.00;52461.47;2062950;28;37236;-66
2023/10/14 03:54:20;;;;;;;14.43;1.13;;;;;;;-146.25;100.00;52447.28;2069809;28;38485;-65
2023/10/14 03:55:25;;;;;;;13.23;1.10;;;;;;;-146.25;100.00;52469.56;2078572;28;36645;-66
2023/10/14 03:56:29;;;;;;;12.88;1.02;;;;;;;-146.25;100.00;52412.81;2078772;28;34291;-65
2023/10/14 03:57:37;;;;;;;12.40;1.10;;;;;;;-146.25;100.00;52445.25;2070111;28;34501;-66
2023/10/14 03:58:44;;;;;;;15.05;1.35;;;;;;;-146.25;100.00;52453.34;2078660;28;36964;-66
2023/10/14 03:59:48;;;;;;;7.55;0.93;;;;;;;-146.25;100.00;52457.41;2077091;28;31404;-66
2023/10/14 04:00:52;;;;;;;13.77;1.38;;;;;;;-146.25;100.00;52447.28;2069924;28;37966;-64
2023/10/14 04:02:08;;;;;;;13.38;1.00;;;;;;;-146.25;100.00;52447.28;2070674;28;31242;-66
2023/10/14 04:03:12;;;;;;;10.77;1.30;;;;;;;-146.25;100.00;52467.56;2070567;28;33408;-66
2023/10/14 04:04:17;;;;;;;11.18;1.00;;;;;;;-146.25;100.00;52437.13;2071006;28;37898;-66
2023/10/14 04:05:21;;;;;;;9.38;0.90;;;;;;;-146.25;100.00;52485.81;2070953;28;30287;-67
2023/10/14 04:06:23;;;;;;;11.38;0.85;;;;;;;-146.25;100.00;52431.06;2071200;28;35723;-68
2023/10/14 04:07:31;;;;;;;10.30;1.30;;;;;;;-146.25;100.00;52441.19;2071426;28;20889;-65
2023/10/14 04:08:47;;;;;;;12.60;1.10;;;;;;;-146.25;100.00;52441.19;2071419;28;32977;-66
2023/10/14 04:09:56;;;;;;;14.02;1.35;;;;;;;-146.25;100.00;52431.06;2070921;28;37726;-66
2023/10/14 04:11:13;;;;;;;17.20;1.10;;;;;;;-146.25;100.00;52414.84;2071426;28;34755;-66
2023/10/14 04:14:04;;;;;;;9.00;1.00;;;;;;;-146.25;100.00;52457.41;2070317;28;36024;-67
2023/10/14 04:16:15;;;;;;;13.07;1.20;;;;;;;-146.25;100.00;52461.47;2071073;28;20870;-66
2023/10/14 04:18:24;;;;;;;15.45;1.55;;;;;;;-146.25;100.00;52455.38;2071167;28;34313;-66
2023/10/14 04:21:35;;;;;;;13.68;1.48;;;;;;;-146.25;100.00;52514.19;2065672;28;38093;-66
2023/10/14 04:23:29;;;;;;;12.45;0.88;;;;;;;-146.25;100.00;52481.75;2068901;28;37197;-67
2023/10/14 04:25:42;;;;;;;9.25;0.65;;;;;;;-146.25;100.00;52463.50;2063857;28;39376;-66
2023/10/14 04:26:48;;;;;;;12.75;1.17;;;;;;;-146.25;100.00;52475.66;2063776;28;36510;-66
2023/10/14 04:28:54;;;;;;;13.23;1.20;;;;;;;-146.25;100.00;52427.00;2064404;28;34477;-66
2023/10/14 04:30:11;;;;;;;15.00;1.25;;;;;;;-146.25;100.00;52461.47;2063016;28;34994;-66
2023/10/14 04:31:16;;;;;;;11.85;0.93;;;;;;;-146.25;100.00;52473.63;2064249;28;37458;-66
2023/10/14 04:32:25;;;;;;;9.80;0.82;;;;;;;-146.25;100.00;52467.56;2065035;28;20035;-66
2023/10/14 04:33:35;;;;;;;15.25;1.23;;;;;;;-146.25;100.00;52491.88;2064547;28;38008;-66
2023/10/14 04:34:36;;;;;;;13.50;1.23;;;;;;;-146.25;100.00;52451.31;2063674;28;31545;-66
2023/10/14 04:35:47;;;;;;;10.55;0.95;;;;;;;-146.25;100.00;52506.06;2063806;28;35422;-66
2023/10/14 04:36:54;;;;;;;13.82;0.93;;;;;;;-146.25;100.00;52477.69;2064635;28;20093;-66
2023/10/14 04:37:57;;;;;;;10.95;0.95;;;;;;;-146.25;100.00;52451.31;2063380;28;32803;-66
2023/10/14 04:39:11;;;;;;;9.35;0.65;;;;;;;-146.25;100.00;52485.81;2063439;28;31597;-66
2023/10/14 04:40:19;;;;;;;11.38;0.82;;;;;;;-146.25;100.00;52461.47;2064815;28;32486;-66
2023/10/14 04:41:24;;;;;;;12.05;0.68;;;;;;;-146.25;100.00;52429.03;2064198;28;34955;-66
2023/10/14 04:42:35;;;;;;;9.68;0.98;;;;;;;-146.25;100.00;52439.16;2063597;28;35058;-66
2023/10/14 04:43:49;;;;;;;11.38;0.80;;;;;;;-146.25;100.00;52471.59;2063171;28;37210;-66
2023/10/14 04:44:55;;;;;;;12.93;0.90;;;;;;;-146.25;100.00;52467.56;2063435;28;33995;-65
2023/10/14 04:46:13;;;;;;;15.02;1.10;;;;;;;-146.25;100.00;52473.63;2064513;28;33145;-67
2023/10/14 04:47:27;;;;;;;11.48;0.88;;;;;;;-146.25;100.00;52469.56;2064580;28;29138;-66
2023/10/14 04:48:35;;;;;;;12.27;0.75;;;;;;;-146.25;100.00;52473.63;2072250;28;20045;-66
2023/10/14 04:49:38;;;;;;;13.48;0.93;;;;;;;-146.25;100.00;52449.31;2072037;28;33028;-66
2023/10/14 04:50:40;;;;;;;12.00;1.00;;;;;;;-146.25;100.00;52439.16;2071988;28;20050;-66
2023/10/14 04:51:47;;;;;;;15.75;0.80;;;;;;;-146.25;100.00;52445.25;2064564;28;20082;-65
2023/10/14 04:52:49;;;;;;;11.05;0.98;;;;;;;-146.25;100.00;52471.59;2063481;28;36116;-66
2023/10/14 04:53:51;;;;;;;15.50;0.90;;;;;;;-146.25;100.00;52453.34;2064334;28;20106;-66
2023/10/14 04:55:06;;;;;;;12.02;1.17;;;;;;;-146.25;100.00;52479.72;2063927;28;36343;-66
2023/10/14 04:56:09;;;;;;;11.05;0.75;;;;;;;-146.25;100.00;52471.59;2064440;28;33478;-66
2023/10/14 04:57:21;;;;;;;12.23;1.17;;;;;;;-146.25;100.00;52443.22;2063747;28;33280;-66
2023/10/14 04:58:25;;;;;;;12.15;0.88;;;;;;;-146.25;100.00;52453.34;2064584;28;32821;-66
2023/10/14 04:59:30;;;;;;;9.63;0.90;;;;;;;-146.25;100.00;52457.41;2063689;28;35018;-66
2023/10/14 05:00:44;;;;;;;15.27;0.93;;;;;;;-146.25;100.00;52457.41;2064707;28;20035;-66
2023/10/14 05:01:48;;;;;;;15.13;0.90;;;;;;;-146.25;100.00;52475.66;2071057;28;32233;-66
2023/10/14 05:02:50;;;;;;;10.80;1.13;;;;;;;-146.25;100.00;52477.69;2071524;28;37827;-65
2023/10/14 05:03:58;;;;;;;10.75;1.30;;;;;;;-146.25;100.00;52437.13;2071557;28;34360;-66
2023/10/14 05:05:00;;;;;;;11.20;0.68;;;;;;;-146.25;100.00;52449.31;2063409;28;36383;-66
2023/10/14 05:07:11;;;;;;;7.75;0.90;;;;;;;-146.25;100.00;52473.63;2064675;28;20043;-66
2023/10/14 05:08:15;;;;;;;12.10;0.98;;;;;;;-146.25;100.00;52477.69;2064047;28;40371;-66
2023/10/14 05:09:30;;;;;;;11.18;0.98;;;;;;;-146.25;100.00;52437.13;2063792;28;33515;-66
2023/10/14 05:10:41;;;;;;;13.68;0.75;;;;;;;-146.25;100.00;52481.75;2065164;28;20053;-65
2023/10/14 05:11:47;;;;;;;9.45;0.80;;;;;;;-146.25;100.00;52475.66;2064346;28;28528;-65
2023/10/14 05:12:51;;;;;;;11.88;0.70;;;;;;;-146.25;100.00;52487.81;2064313;28;35236;-66
2023/10/14 05:15:20;;;;;;;8.57;0.77;;;;;;;-146.25;100.00;52477.69;2064549;28;20047;-66
2023/10/14 05:16:22;;;;;;;10.77;1.13;;;;;;;-146.25;100.00;52429.03;2064002;28;37285;-66
2023/10/14 05:17:27;;;;;;;13.20;1.20;;;;;;;-146.25;100.00;52467.56;2064216;28;34132;-65
2023/10/14 05:18:29;;;;;;;15.02;1.30;;;;;;;-146.25;100.00;52441.19;2064056;28;32104;-65
2023/10/14 05:19:41;;;;;;;11.07;0.82;;;;;;;-146.25;100.00;52449.31;2063624;28;38417;-67
2023/10/14 05:22:02;;;;;;;17.25;1.30;;;;;;;-146.25;100.00;52483.78;2062972;28;39070;-66
2023/10/14 05:23:06;;;;;;;14.65;1.10;;;;;;;-146.25;100.00;52449.31;2063775;28;35932;-65
2023/10/14 05:24:10;;;;;;;13.77;1.05;;;;;;;-146.25;100.00;52455.38;2063538;28;36262;-66
2023/10/14 05:25:15;;;;;;;14.65;1.02;;;;;;;-146.25;100.00;52441.19;2063193;28;39057;-66
2023/10/14 05:26:27;;;;;;;12.27;1.45;;;;;;;-146.25;100.00;52514.19;2064184;28;21012;-65
2023/10/14 05:28:49;;;;;;;10.57;1.10;;;;;;;-146.25;100.00;52447.28;2063686;28;20047;-66
2023/10/14 05:29:51;;;;;;;9.93;0.95;;;;;;;-146.25;100.00;52445.25;2063145;28;35114;-66
2023/10/14 05:30:55;;;;;;;13.35;0.90;;;;;;;-146.25;100.00;52463.50;2064059;28;31140;-66
2023/10/14 05:32:10;;;;;;;12.68;1.55;;;;;;;-146.25;100.00;52449.31;2070651;28;35393;-65